Portada
METAR-TAF:

METAR-TAF

Aeroports :

Illes Cocos, Austràlia

latitud: 12-11S, longitud: 096-49E, altitud: 3 m

Observació

L'informe es va fer fa 37 minuts, a les 12:00 UTC
Vent 13 kt del Sud-Est
Temperatura 26°C
Humitat 74%
Pressió 1014 hPa
Visibilitat 10 km o més
Núvols disperses a una alçada de 3300 ft

METAR: YPCC 251200Z AUTO 14013KT 9999 // SCT033 26/21 Q1014

Hora: 19:07 (12:37 UTC)

Pronòstic

L'informe es va fer fa 1 hora i 28 minuts, a les 11:09 UTC
Pronòstic vàlid del 25 a les 12 UTC al 26 a les 12 UTC
Vent 14 kt del Sud-Est
Visibilitat 10 km o més
Núvols disperses a una alçada de 2500 ft

TAF: YPCC 251109Z 2512/2612 13014KT 9999 SCT025

Observacions i pronòstics meteorològics de més de 4000 aeroports (METAR i TAF).

Les estacions disponibles són els punts grocs i vermells al mapa.

Posi el ratolí al punt desitjat per veure el nom de l'estació.

Feu clic per veure les observacions i els pronòstics meteorològics.

Per canviar el mapa: feu clic els botons verds amb una creu de color negre per apropar; al botó verd amb un guió per allunyar la imatge; o en les fletxes verdes per a mapes adjacents.


METAR-TAF: